sensor_id;sensor_type;location;lat;lon;timestamp;P1;durP1;ratioP1;P2;durP2;ratioP2
9763;SDS011;4921;43.214;27.936;2023-04-09T00:02:01;12.40;;;11.10;;
9763;SDS011;4921;43.214;27.936;2023-04-09T00:04:28;16.00;;;12.63;;
9763;SDS011;4921;43.214;27.936;2023-04-09T00:06:55;14.33;;;12.37;;
9763;SDS011;4921;43.214;27.936;2023-04-09T00:09:22;14.60;;;12.40;;
9763;SDS011;4921;43.214;27.936;2023-04-09T00:11:49;13.70;;;11.03;;
9763;SDS011;4921;43.214;27.936;2023-04-09T00:14:18;14.60;;;11.27;;
9763;SDS011;4921;43.214;27.936;2023-04-09T00:16:45;13.13;;;11.60;;
9763;SDS011;4921;43.214;27.936;2023-04-09T00:19:12;18.13;;;12.73;;
9763;SDS011;4921;43.214;27.936;2023-04-09T00:21:38;11.37;;;10.20;;
9763;SDS011;4921;43.214;27.936;2023-04-09T00:24:05;13.90;;;11.77;;
9763;SDS011;4921;43.214;27.936;2023-04-09T00:26:32;16.10;;;11.67;;
9763;SDS011;4921;43.214;27.936;2023-04-09T00:28:59;13.10;;;11.60;;
9763;SDS011;4921;43.214;27.936;2023-04-09T00:31:46;15.03;;;10.97;;
9763;SDS011;4921;43.214;27.936;2023-04-09T00:34:13;11.97;;;10.77;;
9763;SDS011;4921;43.214;27.936;2023-04-09T00:36:40;11.60;;;10.40;;
9763;SDS011;4921;43.214;27.936;2023-04-09T00:39:07;11.53;;;9.63;;
9763;SDS011;4921;43.214;27.936;2023-04-09T00:41:34;9.33;;;8.47;;
9763;SDS011;4921;43.214;27.936;2023-04-09T00:44:01;8.87;;;7.97;;
9763;SDS011;4921;43.214;27.936;2023-04-09T00:46:28;11.60;;;9.47;;
9763;SDS011;4921;43.214;27.936;2023-04-09T00:48:58;9.43;;;8.47;;
9763;SDS011;4921;43.214;27.936;2023-04-09T00:51:25;9.47;;;7.97;;
9763;SDS011;4921;43.214;27.936;2023-04-09T00:53:52;9.23;;;8.20;;
9763;SDS011;4921;43.214;27.936;2023-04-09T00:56:20;9.40;;;8.50;;
9763;SDS011;4921;43.214;27.936;2023-04-09T00:58:48;7.77;;;7.03;;
9763;SDS011;4921;43.214;27.936;2023-04-09T01:01:15;7.93;;;7.13;;
9763;SDS011;4921;43.214;27.936;2023-04-09T01:03:42;7.57;;;6.77;;
9763;SDS011;4921;43.214;27.936;2023-04-09T01:06:14;8.10;;;7.40;;
9763;SDS011;4921;43.214;27.936;2023-04-09T01:08:48;7.93;;;7.23;;
9763;SDS011;4921;43.214;27.936;2023-04-09T01:11:23;9.67;;;6.70;;
9763;SDS011;4921;43.214;27.936;2023-04-09T01:13:59;8.00;;;7.20;;
9763;SDS011;4921;43.214;27.936;2023-04-09T01:16:31;7.37;;;6.57;;
9763;SDS011;4921;43.214;27.936;2023-04-09T01:19:01;7.20;;;6.50;;
9763;SDS011;4921;43.214;27.936;2023-04-09T01:21:36;7.87;;;7.17;;
9763;SDS011;4921;43.214;27.936;2023-04-09T01:24:09;7.50;;;6.40;;
9763;SDS011;4921;43.214;27.936;2023-04-09T01:26:53;9.23;;;7.07;;
9763;SDS011;4921;43.214;27.936;2023-04-09T01:29:27;8.47;;;7.07;;
9763;SDS011;4921;43.214;27.936;2023-04-09T01:31:56;7.60;;;6.87;;
9763;SDS011;4921;43.214;27.936;2023-04-09T01:34:25;6.77;;;6.17;;
9763;SDS011;4921;43.214;27.936;2023-04-09T01:36:55;7.57;;;6.87;;
9763;SDS011;4921;43.214;27.936;2023-04-09T01:39:24;7.50;;;6.77;;
9763;SDS011;4921;43.214;27.936;2023-04-09T01:41:51;13.10;;;11.27;;
9763;SDS011;4921;43.214;27.936;2023-04-09T01:44:19;12.83;;;11.00;;
9763;SDS011;4921;43.214;27.936;2023-04-09T01:46:48;8.97;;;7.87;;
9763;SDS011;4921;43.214;27.936;2023-04-09T01:49:16;8.30;;;7.47;;
9763;SDS011;4921;43.214;27.936;2023-04-09T01:51:44;8.10;;;7.30;;
9763;SDS011;4921;43.214;27.936;2023-04-09T01:54:12;7.33;;;6.63;;
9763;SDS011;4921;43.214;27.936;2023-04-09T01:56:41;9.40;;;8.40;;
9763;SDS011;4921;43.214;27.936;2023-04-09T01:59:09;6.30;;;5.63;;
9763;SDS011;4921;43.214;27.936;2023-04-09T02:01:37;5.57;;;5.07;;
9763;SDS011;4921;43.214;27.936;2023-04-09T02:04:10;5.63;;;5.20;;
9763;SDS011;4921;43.214;27.936;2023-04-09T02:06:43;6.03;;;5.53;;
9763;SDS011;4921;43.214;27.936;2023-04-09T02:09:17;6.47;;;5.87;;
9763;SDS011;4921;43.214;27.936;2023-04-09T02:11:47;5.77;;;5.27;;
9763;SDS011;4921;43.214;27.936;2023-04-09T02:14:15;5.30;;;4.80;;
9763;SDS011;4921;43.214;27.936;2023-04-09T02:16:44;5.80;;;5.30;;
9763;SDS011;4921;43.214;27.936;2023-04-09T02:19:14;5.40;;;5.00;;
9763;SDS011;4921;43.214;27.936;2023-04-09T02:21:40;6.63;;;5.63;;
9763;SDS011;4921;43.214;27.936;2023-04-09T02:24:08;6.27;;;5.67;;
9763;SDS011;4921;43.214;27.936;2023-04-09T02:26:35;6.43;;;5.83;;
9763;SDS011;4921;43.214;27.936;2023-04-09T02:29:02;7.10;;;6.50;;
9763;SDS011;4921;43.214;27.936;2023-04-09T02:31:29;7.20;;;6.50;;
9763;SDS011;4921;43.214;27.936;2023-04-09T02:33:56;7.30;;;6.40;;
9763;SDS011;4921;43.214;27.936;2023-04-09T02:36:24;6.50;;;5.97;;
9763;SDS011;4921;43.214;27.936;2023-04-09T02:38:51;6.20;;;5.70;;
9763;SDS011;4921;43.214;27.936;2023-04-09T02:41:18;6.50;;;5.90;;
9763;SDS011;4921;43.214;27.936;2023-04-09T02:43:45;5.57;;;5.10;;
9763;SDS011;4921;43.214;27.936;2023-04-09T02:46:12;5.30;;;4.90;;
9763;SDS011;4921;43.214;27.936;2023-04-09T02:48:39;5.57;;;5.07;;
9763;SDS011;4921;43.214;27.936;2023-04-09T02:51:06;5.63;;;5.13;;
9763;SDS011;4921;43.214;27.936;2023-04-09T02:53:34;5.60;;;5.10;;
9763;SDS011;4921;43.214;27.936;2023-04-09T02:56:03;5.87;;;5.37;;
9763;SDS011;4921;43.214;27.936;2023-04-09T02:58:30;6.33;;;5.50;;
9763;SDS011;4921;43.214;27.936;2023-04-09T03:00:57;6.07;;;5.57;;
9763;SDS011;4921;43.214;27.936;2023-04-09T03:03:24;5.77;;;5.27;;
9763;SDS011;4921;43.214;27.936;2023-04-09T03:05:51;7.57;;;5.47;;
9763;SDS011;4921;43.214;27.936;2023-04-09T03:08:18;5.50;;;5.10;;
9763;SDS011;4921;43.214;27.936;2023-04-09T03:10:46;6.30;;;5.77;;
9763;SDS011;4921;43.214;27.936;2023-04-09T03:13:13;5.70;;;5.20;;
9763;SDS011;4921;43.214;27.936;2023-04-09T03:15:40;5.97;;;5.47;;
9763;SDS011;4921;43.214;27.936;2023-04-09T03:18:07;5.90;;;5.40;;
9763;SDS011;4921;43.214;27.936;2023-04-09T03:20:36;6.43;;;5.83;;
9763;SDS011;4921;43.214;27.936;2023-04-09T03:23:03;9.60;;;6.33;;
9763;SDS011;4921;43.214;27.936;2023-04-09T03:25:30;7.47;;;6.77;;
9763;SDS011;4921;43.214;27.936;2023-04-09T03:27:58;7.47;;;6.67;;
9763;SDS011;4921;43.214;27.936;2023-04-09T03:30:25;7.27;;;6.47;;
9763;SDS011;4921;43.214;27.936;2023-04-09T03:32:52;6.57;;;5.97;;
9763;SDS011;4921;43.214;27.936;2023-04-09T03:35:19;7.13;;;6.43;;
9763;SDS011;4921;43.214;27.936;2023-04-09T03:37:46;7.97;;;6.90;;
9763;SDS011;4921;43.214;27.936;2023-04-09T03:40:13;7.70;;;6.50;;
9763;SDS011;4921;43.214;27.936;2023-04-09T03:42:41;7.40;;;6.67;;
9763;SDS011;4921;43.214;27.936;2023-04-09T03:45:10;8.00;;;6.97;;
9763;SDS011;4921;43.214;27.936;2023-04-09T03:47:36;9.07;;;6.90;;
9763;SDS011;4921;43.214;27.936;2023-04-09T03:50:04;7.60;;;6.80;;
9763;SDS011;4921;43.214;27.936;2023-04-09T03:52:31;9.10;;;7.30;;
9763;SDS011;4921;43.214;27.936;2023-04-09T03:54:58;7.80;;;7.10;;
9763;SDS011;4921;43.214;27.936;2023-04-09T03:57:25;7.93;;;6.93;;
9763;SDS011;4921;43.214;27.936;2023-04-09T03:59:52;8.50;;;7.30;;
9763;SDS011;4921;43.214;27.936;2023-04-09T04:02:20;8.27;;;6.60;;
9763;SDS011;4921;43.214;27.936;2023-04-09T04:04:47;6.97;;;6.10;;
9763;SDS011;4921;43.214;27.936;2023-04-09T04:07:14;7.07;;;6.40;;
9763;SDS011;4921;43.214;27.936;2023-04-09T04:09:41;6.40;;;5.60;;
9763;SDS011;4921;43.214;27.936;2023-04-09T04:12:08;6.80;;;5.80;;
9763;SDS011;4921;43.214;27.936;2023-04-09T04:14:35;6.50;;;5.90;;
9763;SDS011;4921;43.214;27.936;2023-04-09T04:17:02;6.00;;;5.50;;
9763;SDS011;4921;43.214;27.936;2023-04-09T04:19:30;5.27;;;4.77;;
9763;SDS011;4921;43.214;27.936;2023-04-09T04:21:57;5.50;;;4.50;;
9763;SDS011;4921;43.214;27.936;2023-04-09T04:24:24;4.40;;;4.00;;
9763;SDS011;4921;43.214;27.936;2023-04-09T04:26:51;5.13;;;4.70;;
9763;SDS011;4921;43.214;27.936;2023-04-09T04:29:18;4.40;;;4.10;;
9763;SDS011;4921;43.214;27.936;2023-04-09T04:31:45;4.70;;;4.10;;
9763;SDS011;4921;43.214;27.936;2023-04-09T04:34:12;5.87;;;4.20;;
9763;SDS011;4921;43.214;27.936;2023-04-09T04:36:40;4.20;;;3.90;;
9763;SDS011;4921;43.214;27.936;2023-04-09T04:39:07;4.33;;;3.93;;
9763;SDS011;4921;43.214;27.936;2023-04-09T04:41:34;6.67;;;3.97;;
9763;SDS011;4921;43.214;27.936;2023-04-09T04:44:01;4.03;;;3.73;;
9763;SDS011;4921;43.214;27.936;2023-04-09T04:46:28;4.50;;;3.47;;
9763;SDS011;4921;43.214;27.936;2023-04-09T04:48:55;4.40;;;4.00;;
9763;SDS011;4921;43.214;27.936;2023-04-09T04:51:22;4.43;;;4.03;;
9763;SDS011;4921;43.214;27.936;2023-04-09T04:53:50;4.37;;;4.00;;
9763;SDS011;4921;43.214;27.936;2023-04-09T04:56:17;4.17;;;3.87;;
9763;SDS011;4921;43.214;27.936;2023-04-09T04:58:44;4.27;;;3.87;;
9763;SDS011;4921;43.214;27.936;2023-04-09T05:01:11;4.27;;;3.87;;
9763;SDS011;4921;43.214;27.936;2023-04-09T05:03:38;3.87;;;3.57;;
9763;SDS011;4921;43.214;27.936;2023-04-09T05:06:05;4.10;;;3.80;;
9763;SDS011;4921;43.214;27.936;2023-04-09T05:08:32;3.40;;;3.20;;
9763;SDS011;4921;43.214;27.936;2023-04-09T05:11:00;3.87;;;3.57;;
9763;SDS011;4921;43.214;27.936;2023-04-09T05:13:27;4.93;;;3.83;;
9763;SDS011;4921;43.214;27.936;2023-04-09T05:15:54;5.13;;;3.93;;
9763;SDS011;4921;43.214;27.936;2023-04-09T05:18:21;4.43;;;3.90;;
9763;SDS011;4921;43.214;27.936;2023-04-09T05:20:48;4.33;;;4.03;;
9763;SDS011;4921;43.214;27.936;2023-04-09T05:23:15;5.50;;;4.47;;
9763;SDS011;4921;43.214;27.936;2023-04-09T05:25:42;4.50;;;4.10;;
9763;SDS011;4921;43.214;27.936;2023-04-09T05:28:10;4.67;;;4.27;;
9763;SDS011;4921;43.214;27.936;2023-04-09T05:30:37;6.50;;;4.20;;
9763;SDS011;4921;43.214;27.936;2023-04-09T05:33:04;4.60;;;4.23;;
9763;SDS011;4921;43.214;27.936;2023-04-09T05:35:31;4.70;;;4.40;;
9763;SDS011;4921;43.214;27.936;2023-04-09T05:37:58;5.20;;;4.60;;
9763;SDS011;4921;43.214;27.936;2023-04-09T05:40:25;4.67;;;4.27;;
9763;SDS011;4921;43.214;27.936;2023-04-09T05:42:51;4.90;;;4.50;;
9763;SDS011;4921;43.214;27.936;2023-04-09T05:45:20;5.03;;;4.50;;
9763;SDS011;4921;43.214;27.936;2023-04-09T05:47:47;5.27;;;4.77;;
9763;SDS011;4921;43.214;27.936;2023-04-09T05:50:14;5.00;;;4.60;;
9763;SDS011;4921;43.214;27.936;2023-04-09T05:52:41;5.33;;;4.83;;
9763;SDS011;4921;43.214;27.936;2023-04-09T05:55:08;5.30;;;4.80;;
9763;SDS011;4921;43.214;27.936;2023-04-09T05:57:35;6.67;;;6.03;;
9763;SDS011;4921;43.214;27.936;2023-04-09T06:00:02;8.23;;;6.93;;
9763;SDS011;4921;43.214;27.936;2023-04-09T06:02:31;4.73;;;4.33;;
9763;SDS011;4921;43.214;27.936;2023-04-09T06:04:58;5.03;;;4.63;;
9763;SDS011;4921;43.214;27.936;2023-04-09T06:07:25;6.33;;;5.60;;
9763;SDS011;4921;43.214;27.936;2023-04-09T06:09:52;7.27;;;6.57;;
9763;SDS011;4921;43.214;27.936;2023-04-09T06:12:20;6.70;;;6.00;;
9763;SDS011;4921;43.214;27.936;2023-04-09T06:14:47;7.43;;;6.73;;
9763;SDS011;4921;43.214;27.936;2023-04-09T06:17:14;8.13;;;6.50;;
9763;SDS011;4921;43.214;27.936;2023-04-09T06:19:43;10.33;;;6.87;;
9763;SDS011;4921;43.214;27.936;2023-04-09T06:22:09;9.07;;;8.03;;
9763;SDS011;4921;43.214;27.936;2023-04-09T06:24:36;8.07;;;7.27;;
9763;SDS011;4921;43.214;27.936;2023-04-09T06:27:03;11.23;;;8.13;;
9763;SDS011;4921;43.214;27.936;2023-04-09T06:29:30;8.03;;;7.30;;
9763;SDS011;4921;43.214;27.936;2023-04-09T06:31:57;9.53;;;8.60;;
9763;SDS011;4921;43.214;27.936;2023-04-09T06:34:24;90.90;;;46.37;;
9763;SDS011;4921;43.214;27.936;2023-04-09T06:36:53;25.47;;;15.87;;
9763;SDS011;4921;43.214;27.936;2023-04-09T06:39:20;10.90;;;7.47;;
9763;SDS011;4921;43.214;27.936;2023-04-09T06:41:47;11.80;;;8.10;;
9763;SDS011;4921;43.214;27.936;2023-04-09T06:44:14;7.13;;;6.40;;
9763;SDS011;4921;43.214;27.936;2023-04-09T06:46:41;5.90;;;5.40;;
9763;SDS011;4921;43.214;27.936;2023-04-09T06:49:07;5.23;;;4.83;;
9763;SDS011;4921;43.214;27.936;2023-04-09T06:51:34;5.77;;;5.27;;
9763;SDS011;4921;43.214;27.936;2023-04-09T06:54:03;4.87;;;4.47;;
9763;SDS011;4921;43.214;27.936;2023-04-09T06:56:29;4.00;;;3.70;;
9763;SDS011;4921;43.214;27.936;2023-04-09T06:58:56;5.03;;;4.63;;
9763;SDS011;4921;43.214;27.936;2023-04-09T07:01:23;5.73;;;4.30;;
9763;SDS011;4921;43.214;27.936;2023-04-09T07:03:50;6.77;;;5.37;;
9763;SDS011;4921;43.214;27.936;2023-04-09T07:06:17;6.10;;;5.53;;
9763;SDS011;4921;43.214;27.936;2023-04-09T07:08:45;5.57;;;5.10;;
9763;SDS011;4921;43.214;27.936;2023-04-09T07:11:13;7.47;;;6.07;;
9763;SDS011;4921;43.214;27.936;2023-04-09T07:13:41;7.47;;;5.73;;
9763;SDS011;4921;43.214;27.936;2023-04-09T07:16:08;6.80;;;6.30;;
9763;SDS011;4921;43.214;27.936;2023-04-09T07:18:35;6.60;;;6.07;;
9763;SDS011;4921;43.214;27.936;2023-04-09T07:21:02;5.57;;;4.97;;
9763;SDS011;4921;43.214;27.936;2023-04-09T07:23:30;6.20;;;5.60;;
9763;SDS011;4921;43.214;27.936;2023-04-09T07:26:00;6.33;;;5.83;;
9763;SDS011;4921;43.214;27.936;2023-04-09T07:28:28;7.00;;;6.00;;
9763;SDS011;4921;43.214;27.936;2023-04-09T07:30:56;6.40;;;5.80;;
9763;SDS011;4921;43.214;27.936;2023-04-09T07:33:23;5.97;;;5.47;;
9763;SDS011;4921;43.214;27.936;2023-04-09T07:35:49;5.97;;;5.47;;
9763;SDS011;4921;43.214;27.936;2023-04-09T07:38:16;5.47;;;5.07;;
9763;SDS011;4921;43.214;27.936;2023-04-09T07:40:43;5.33;;;4.93;;
9763;SDS011;4921;43.214;27.936;2023-04-09T07:43:11;5.47;;;5.00;;
9763;SDS011;4921;43.214;27.936;2023-04-09T07:45:39;5.77;;;5.27;;
9763;SDS011;4921;43.214;27.936;2023-04-09T07:48:06;6.80;;;6.10;;
9763;SDS011;4921;43.214;27.936;2023-04-09T07:50:34;8.40;;;6.60;;
9763;SDS011;4921;43.214;27.936;2023-04-09T07:53:00;7.87;;;7.17;;
9763;SDS011;4921;43.214;27.936;2023-04-09T07:55:27;8.50;;;6.70;;
9763;SDS011;4921;43.214;27.936;2023-04-09T07:57:54;6.03;;;5.43;;
9763;SDS011;4921;43.214;27.936;2023-04-09T08:00:21;5.30;;;4.83;;
9763;SDS011;4921;43.214;27.936;2023-04-09T08:02:50;5.43;;;4.93;;
9763;SDS011;4921;43.214;27.936;2023-04-09T08:05:17;5.03;;;4.63;;
9763;SDS011;4921;43.214;27.936;2023-04-09T08:07:44;5.07;;;4.67;;
9763;SDS011;4921;43.214;27.936;2023-04-09T08:10:11;4.63;;;3.80;;
9763;SDS011;4921;43.214;27.936;2023-04-09T08:12:40;4.00;;;3.80;;
9763;SDS011;4921;43.214;27.936;2023-04-09T08:15:07;4.27;;;3.97;;
9763;SDS011;4921;43.214;27.936;2023-04-09T08:17:34;4.30;;;3.90;;
9763;SDS011;4921;43.214;27.936;2023-04-09T08:20:03;3.90;;;3.70;;
9763;SDS011;4921;43.214;27.936;2023-04-09T08:22:31;4.33;;;4.00;;
9763;SDS011;4921;43.214;27.936;2023-04-09T08:24:58;4.73;;;4.40;;
9763;SDS011;4921;43.214;27.936;2023-04-09T08:27:25;5.13;;;4.73;;
9763;SDS011;4921;43.214;27.936;2023-04-09T08:29:52;4.53;;;4.23;;
9763;SDS011;4921;43.214;27.936;2023-04-09T08:32:19;4.90;;;4.50;;
9763;SDS011;4921;43.214;27.936;2023-04-09T08:34:46;4.90;;;4.50;;
9763;SDS011;4921;43.214;27.936;2023-04-09T08:37:15;5.00;;;4.60;;
9763;SDS011;4921;43.214;27.936;2023-04-09T08:39:42;4.70;;;4.40;;
9763;SDS011;4921;43.214;27.936;2023-04-09T08:42:09;4.70;;;4.40;;
9763;SDS011;4921;43.214;27.936;2023-04-09T08:44:37;5.73;;;5.13;;
9763;SDS011;4921;43.214;27.936;2023-04-09T08:47:06;6.10;;;5.50;;
9763;SDS011;4921;43.214;27.936;2023-04-09T08:49:35;5.40;;;4.90;;
9763;SDS011;4921;43.214;27.936;2023-04-09T08:52:04;5.13;;;4.80;;
9763;SDS011;4921;43.214;27.936;2023-04-09T08:54:33;5.43;;;5.03;;
9763;SDS011;4921;43.214;27.936;2023-04-09T08:57:03;5.47;;;5.07;;
9763;SDS011;4921;43.214;27.936;2023-04-09T08:59:31;5.60;;;5.10;;
9763;SDS011;4921;43.214;27.936;2023-04-09T09:02:08;5.30;;;4.90;;
9763;SDS011;4921;43.214;27.936;2023-04-09T09:04:44;6.23;;;5.70;;
9763;SDS011;4921;43.214;27.936;2023-04-09T09:07:12;6.20;;;5.70;;
9763;SDS011;4921;43.214;27.936;2023-04-09T09:09:51;5.33;;;4.83;;
9763;SDS011;4921;43.214;27.936;2023-04-09T09:12:31;6.00;;;5.40;;
9763;SDS011;4921;43.214;27.936;2023-04-09T09:15:00;5.50;;;5.10;;
9763;SDS011;4921;43.214;27.936;2023-04-09T09:17:27;5.53;;;5.10;;
9763;SDS011;4921;43.214;27.936;2023-04-09T09:19:54;5.73;;;4.97;;
9763;SDS011;4921;43.214;27.936;2023-04-09T09:22:21;5.23;;;4.83;;
9763;SDS011;4921;43.214;27.936;2023-04-09T09:24:51;5.43;;;5.03;;
9763;SDS011;4921;43.214;27.936;2023-04-09T09:27:31;5.67;;;5.17;;
9763;SDS011;4921;43.214;27.936;2023-04-09T09:30:01;6.23;;;5.73;;
9763;SDS011;4921;43.214;27.936;2023-04-09T09:32:29;5.50;;;5.10;;
9763;SDS011;4921;43.214;27.936;2023-04-09T09:34:58;6.17;;;5.67;;
9763;SDS011;4921;43.214;27.936;2023-04-09T09:37:27;6.43;;;5.87;;
9763;SDS011;4921;43.214;27.936;2023-04-09T09:39:56;6.47;;;5.87;;
9763;SDS011;4921;43.214;27.936;2023-04-09T09:42:24;6.80;;;6.30;;
9763;SDS011;4921;43.214;27.936;2023-04-09T09:44:52;6.40;;;5.90;;
9763;SDS011;4921;43.214;27.936;2023-04-09T09:47:20;6.13;;;5.53;;
9763;SDS011;4921;43.214;27.936;2023-04-09T09:49:48;6.57;;;5.97;;
9763;SDS011;4921;43.214;27.936;2023-04-09T09:52:17;6.37;;;5.73;;
9763;SDS011;4921;43.214;27.936;2023-04-09T09:54:50;6.50;;;5.90;;
9763;SDS011;4921;43.214;27.936;2023-04-09T09:57:19;5.73;;;5.23;;
9763;SDS011;4921;43.214;27.936;2023-04-09T09:59:52;6.90;;;5.80;;
9763;SDS011;4921;43.214;27.936;2023-04-09T10:02:22;5.77;;;5.23;;
9763;SDS011;4921;43.214;27.936;2023-04-09T10:04:51;5.87;;;5.47;;
9763;SDS011;4921;43.214;27.936;2023-04-09T10:07:18;6.30;;;5.70;;
9763;SDS011;4921;43.214;27.936;2023-04-09T10:09:48;5.60;;;5.20;;
9763;SDS011;4921;43.214;27.936;2023-04-09T10:12:16;6.10;;;5.60;;
9763;SDS011;4921;43.214;27.936;2023-04-09T10:14:49;6.10;;;5.60;;
9763;SDS011;4921;43.214;27.936;2023-04-09T10:17:17;5.80;;;5.30;;
9763;SDS011;4921;43.214;27.936;2023-04-09T10:19:46;6.63;;;6.03;;
9763;SDS011;4921;43.214;27.936;2023-04-09T10:22:20;6.00;;;5.50;;
9763;SDS011;4921;43.214;27.936;2023-04-09T10:24:51;5.67;;;5.17;;
9763;SDS011;4921;43.214;27.936;2023-04-09T10:27:18;5.67;;;5.20;;
9763;SDS011;4921;43.214;27.936;2023-04-09T10:29:45;6.30;;;5.80;;
9763;SDS011;4921;43.214;27.936;2023-04-09T10:32:18;5.93;;;5.43;;
9763;SDS011;4921;43.214;27.936;2023-04-09T10:34:50;6.23;;;5.77;;
9763;SDS011;4921;43.214;27.936;2023-04-09T10:37:21;8.03;;;5.80;;
9763;SDS011;4921;43.214;27.936;2023-04-09T10:39:50;6.03;;;5.53;;
9763;SDS011;4921;43.214;27.936;2023-04-09T10:42:19;10.97;;;9.27;;
9763;SDS011;4921;43.214;27.936;2023-04-09T10:45:02;33.87;;;20.77;;
9763;SDS011;4921;43.214;27.936;2023-04-09T10:47:33;36.13;;;21.30;;
9763;SDS011;4921;43.214;27.936;2023-04-09T10:50:13;30.30;;;19.20;;
9763;SDS011;4921;43.214;27.936;2023-04-09T10:52:41;28.40;;;18.80;;
9763;SDS011;4921;43.214;27.936;2023-04-09T10:55:09;15.73;;;11.10;;
9763;SDS011;4921;43.214;27.936;2023-04-09T10:57:55;20.97;;;14.83;;
9763;SDS011;4921;43.214;27.936;2023-04-09T11:00:22;26.20;;;15.33;;
9763;SDS011;4921;43.214;27.936;2023-04-09T11:05:53;6.97;;;6.27;;
9763;SDS011;4921;43.214;27.936;2023-04-09T11:08:24;5.70;;;5.30;;
9763;SDS011;4921;43.214;27.936;2023-04-09T11:10:54;5.60;;;5.20;;
9763;SDS011;4921;43.214;27.936;2023-04-09T11:13:22;5.87;;;5.33;;
9763;SDS011;4921;43.214;27.936;2023-04-09T11:15:49;6.73;;;5.27;;
9763;SDS011;4921;43.214;27.936;2023-04-09T11:18:20;6.03;;;5.53;;
9763;SDS011;4921;43.214;27.936;2023-04-09T11:20:49;5.50;;;5.10;;
9763;SDS011;4921;43.214;27.936;2023-04-09T11:23:19;5.97;;;5.47;;
9763;SDS011;4921;43.214;27.936;2023-04-09T11:25:47;6.73;;;6.13;;
9763;SDS011;4921;43.214;27.936;2023-04-09T11:28:15;6.27;;;5.70;;
9763;SDS011;4921;43.214;27.936;2023-04-09T11:30:43;6.90;;;6.30;;
9763;SDS011;4921;43.214;27.936;2023-04-09T11:33:11;6.83;;;5.80;;
9763;SDS011;4921;43.214;27.936;2023-04-09T11:35:38;6.57;;;5.97;;
9763;SDS011;4921;43.214;27.936;2023-04-09T11:38:07;13.50;;;10.60;;
9763;SDS011;4921;43.214;27.936;2023-04-09T11:40:35;28.63;;;19.27;;
9763;SDS011;4921;43.214;27.936;2023-04-09T11:43:07;41.80;;;23.93;;
9763;SDS011;4921;43.214;27.936;2023-04-09T11:45:35;31.77;;;19.53;;
9763;SDS011;4921;43.214;27.936;2023-04-09T11:48:02;54.97;;;33.23;;
9763;SDS011;4921;43.214;27.936;2023-04-09T11:50:30;238.43;;;112.60;;
9763;SDS011;4921;43.214;27.936;2023-04-09T11:52:57;132.33;;;60.23;;
9763;SDS011;4921;43.214;27.936;2023-04-09T11:55:26;38.27;;;20.17;;
9763;SDS011;4921;43.214;27.936;2023-04-09T11:57:56;59.53;;;31.90;;
9763;SDS011;4921;43.214;27.936;2023-04-09T12:00:25;83.20;;;46.80;;
9763;SDS011;4921;43.214;27.936;2023-04-09T12:02:58;21.77;;;14.17;;
9763;SDS011;4921;43.214;27.936;2023-04-09T12:05:28;7.43;;;6.83;;
9763;SDS011;4921;43.214;27.936;2023-04-09T12:07:56;7.10;;;6.40;;
9763;SDS011;4921;43.214;27.936;2023-04-09T12:10:27;7.03;;;6.43;;
9763;SDS011;4921;43.214;27.936;2023-04-09T12:12:59;6.50;;;6.00;;
9763;SDS011;4921;43.214;27.936;2023-04-09T12:15:29;6.60;;;5.93;;
9763;SDS011;4921;43.214;27.936;2023-04-09T12:17:57;5.83;;;5.43;;
9763;SDS011;4921;43.214;27.936;2023-04-09T12:20:25;6.27;;;5.60;;
9763;SDS011;4921;43.214;27.936;2023-04-09T12:22:54;9.30;;;8.40;;
9763;SDS011;4921;43.214;27.936;2023-04-09T12:25:21;7.20;;;6.60;;
9763;SDS011;4921;43.214;27.936;2023-04-09T12:27:49;6.10;;;5.60;;
9763;SDS011;4921;43.214;27.936;2023-04-09T12:30:16;8.57;;;5.83;;
9763;SDS011;4921;43.214;27.936;2023-04-09T12:32:43;6.37;;;5.87;;
9763;SDS011;4921;43.214;27.936;2023-04-09T12:35:12;6.87;;;6.20;;
9763;SDS011;4921;43.214;27.936;2023-04-09T12:37:39;6.50;;;5.90;;
9763;SDS011;4921;43.214;27.936;2023-04-09T12:40:07;6.03;;;5.53;;
9763;SDS011;4921;43.214;27.936;2023-04-09T12:42:34;7.10;;;6.40;;
9763;SDS011;4921;43.214;27.936;2023-04-09T12:45:03;6.40;;;5.67;;
9763;SDS011;4921;43.214;27.936;2023-04-09T12:47:30;6.27;;;5.77;;
9763;SDS011;4921;43.214;27.936;2023-04-09T12:49:57;4.90;;;4.50;;
9763;SDS011;4921;43.214;27.936;2023-04-09T12:52:24;6.20;;;5.70;;
9763;SDS011;4921;43.214;27.936;2023-04-09T12:54:51;5.70;;;5.20;;
9763;SDS011;4921;43.214;27.936;2023-04-09T12:57:18;5.87;;;5.37;;
9763;SDS011;4921;43.214;27.936;2023-04-09T12:59:45;5.60;;;5.17;;
9763;SDS011;4921;43.214;27.936;2023-04-09T13:02:14;6.20;;;5.13;;
9763;SDS011;4921;43.214;27.936;2023-04-09T13:04:40;5.97;;;5.47;;
9763;SDS011;4921;43.214;27.936;2023-04-09T13:07:08;6.13;;;5.63;;
9763;SDS011;4921;43.214;27.936;2023-04-09T13:09:36;5.03;;;4.63;;
9763;SDS011;4921;43.214;27.936;2023-04-09T13:12:03;5.60;;;5.10;;
9763;SDS011;4921;43.214;27.936;2023-04-09T13:14:30;5.80;;;5.30;;
9763;SDS011;4921;43.214;27.936;2023-04-09T13:16:57;6.67;;;5.50;;
9763;SDS011;4921;43.214;27.936;2023-04-09T13:19:25;6.50;;;6.00;;
9763;SDS011;4921;43.214;27.936;2023-04-09T13:21:52;5.70;;;5.20;;
9763;SDS011;4921;43.214;27.936;2023-04-09T13:24:19;6.20;;;5.70;;
9763;SDS011;4921;43.214;27.936;2023-04-09T13:26:46;6.67;;;6.17;;
9763;SDS011;4921;43.214;27.936;2023-04-09T13:29:13;6.60;;;6.10;;
9763;SDS011;4921;43.214;27.936;2023-04-09T13:31:40;6.53;;;6.03;;
9763;SDS011;4921;43.214;27.936;2023-04-09T13:34:07;6.43;;;5.87;;
9763;SDS011;4921;43.214;27.936;2023-04-09T13:36:35;5.47;;;5.07;;
9763;SDS011;4921;43.214;27.936;2023-04-09T13:39:02;5.77;;;5.27;;
9763;SDS011;4921;43.214;27.936;2023-04-09T13:41:30;6.20;;;5.70;;
9763;SDS011;4921;43.214;27.936;2023-04-09T13:43:57;6.50;;;6.00;;
9763;SDS011;4921;43.214;27.936;2023-04-09T13:46:26;5.80;;;5.30;;
9763;SDS011;4921;43.214;27.936;2023-04-09T13:48:53;6.30;;;5.73;;
9763;SDS011;4921;43.214;27.936;2023-04-09T13:51:20;6.33;;;5.73;;
9763;SDS011;4921;43.214;27.936;2023-04-09T13:53:48;6.40;;;5.80;;
9763;SDS011;4921;43.214;27.936;2023-04-09T13:56:16;6.00;;;5.50;;
9763;SDS011;4921;43.214;27.936;2023-04-09T13:58:43;6.40;;;5.90;;
9763;SDS011;4921;43.214;27.936;2023-04-09T14:01:11;7.23;;;6.53;;
9763;SDS011;4921;43.214;27.936;2023-04-09T14:03:38;6.80;;;6.20;;
9763;SDS011;4921;43.214;27.936;2023-04-09T14:06:05;6.90;;;6.30;;
9763;SDS011;4921;43.214;27.936;2023-04-09T14:08:33;6.40;;;5.83;;
9763;SDS011;4921;43.214;27.936;2023-04-09T14:11:02;6.57;;;5.90;;
9763;SDS011;4921;43.214;27.936;2023-04-09T14:13:29;6.00;;;5.53;;
9763;SDS011;4921;43.214;27.936;2023-04-09T14:15:56;6.67;;;6.03;;
9763;SDS011;4921;43.214;27.936;2023-04-09T14:18:23;6.20;;;5.60;;
9763;SDS011;4921;43.214;27.936;2023-04-09T14:20:50;5.60;;;5.20;;
9763;SDS011;4921;43.214;27.936;2023-04-09T14:23:17;6.37;;;5.80;;
9763;SDS011;4921;43.214;27.936;2023-04-09T14:25:43;7.20;;;6.50;;
9763;SDS011;4921;43.214;27.936;2023-04-09T14:28:12;7.30;;;6.13;;
9763;SDS011;4921;43.214;27.936;2023-04-09T14:30:39;6.80;;;6.10;;
9763;SDS011;4921;43.214;27.936;2023-04-09T14:33:05;6.80;;;6.30;;
9763;SDS011;4921;43.214;27.936;2023-04-09T14:35:33;7.33;;;6.40;;
9763;SDS011;4921;43.214;27.936;2023-04-09T14:37:59;6.60;;;6.10;;
9763;SDS011;4921;43.214;27.936;2023-04-09T14:40:29;6.37;;;5.80;;
9763;SDS011;4921;43.214;27.936;2023-04-09T14:42:55;6.13;;;5.63;;
9763;SDS011;4921;43.214;27.936;2023-04-09T14:45:24;7.10;;;6.50;;
9763;SDS011;4921;43.214;27.936;2023-04-09T14:47:51;8.00;;;7.20;;
9763;SDS011;4921;43.214;27.936;2023-04-09T14:50:19;7.40;;;6.60;;
9763;SDS011;4921;43.214;27.936;2023-04-09T14:52:46;7.50;;;6.57;;
9763;SDS011;4921;43.214;27.936;2023-04-09T14:55:13;6.67;;;6.13;;
9763;SDS011;4921;43.214;27.936;2023-04-09T14:57:40;7.20;;;6.53;;
9763;SDS011;4921;43.214;27.936;2023-04-09T15:00:08;7.10;;;6.47;;
9763;SDS011;4921;43.214;27.936;2023-04-09T15:02:38;7.20;;;5.87;;
9763;SDS011;4921;43.214;27.936;2023-04-09T15:05:05;6.37;;;5.87;;
9763;SDS011;4921;43.214;27.936;2023-04-09T15:07:33;6.57;;;5.87;;